Time;durP1;ratioP1;P1;durP2;ratioP2;P2;SDS_P1;SDS_P2;PMS_P1;PMS_P2;Temp;Humidity;BMP_temperature;BMP_pressure;BME280_temperature;BME280_humidity;BME280_pressure;Samples;Min_cycle;Max_cycle;Signal;HPM_P1;HPM_P2
2022/03/28 00:02:00;;;;;;;7.57;5.70;;;;;;;;;;5005702;28;20201;-61
2022/03/28 00:04:27;;;;;;;13.50;6.40;;;;;;;;;;5016031;28;20192;-63
2022/03/28 00:06:53;;;;;;;9.23;5.60;;;;;;;;;;5013896;28;20199;-61
2022/03/28 00:09:20;;;;;;;11.87;6.47;;;;;;;;;;5007081;28;20197;-62
2022/03/28 00:11:46;;;;;;;10.37;6.20;;;;;;;;;;5001190;28;20218;-63
2022/03/28 00:14:13;;;;;;;7.53;5.90;;;;;;;;;;5007175;28;20697;-64
2022/03/28 00:16:40;;;;;;;12.10;5.73;;;;;;;;;;5002021;28;20185;-62
2022/03/28 00:19:06;;;;;;;13.17;6.23;;;;;;;;;;5023744;28;20268;-60
2022/03/28 00:21:33;;;;;;;9.40;6.00;;;;;;;;;;5007102;28;20288;-62
2022/03/28 00:24:00;;;;;;;9.23;6.20;;;;;;;;;;5007118;28;20204;-61
2022/03/28 00:26:26;;;;;;;11.50;6.53;;;;;;;;;;5006896;28;20197;-61
2022/03/28 00:28:53;;;;;;;14.73;6.07;;;;;;;;;;5005559;28;20189;-62
2022/03/28 00:31:19;;;;;;;11.87;6.30;;;;;;;;;;5006904;28;20220;-61
2022/03/28 00:33:46;;;;;;;10.07;5.87;;;;;;;;;;5006773;28;20199;-63
2022/03/28 00:36:12;;;;;;;9.00;6.07;;;;;;;;;;5006877;28;20613;-61
2022/03/28 00:38:39;;;;;;;12.00;6.73;;;;;;;;;;5007772;28;20219;-62
2022/03/28 00:41:07;;;;;;;10.53;5.93;;;;;;;;;;4996141;28;20231;-62
2022/03/28 00:43:34;;;;;;;11.23;7.30;;;;;;;;;;5008824;28;20208;-62
2022/03/28 00:46:01;;;;;;;10.00;7.13;;;;;;;;;;5007753;28;20308;-63
2022/03/28 00:48:27;;;;;;;11.33;6.43;;;;;;;;;;5023035;28;20347;-61
2022/03/28 00:50:56;;;;;;;15.07;7.27;;;;;;;;;;5007608;28;20342;-62
2022/03/28 00:53:25;;;;;;;10.73;7.50;;;;;;;;;;5006416;28;20201;-63
2022/03/28 00:55:53;;;;;;;9.73;7.07;;;;;;;;;;4991680;28;20346;-61
2022/03/28 00:58:19;;;;;;;18.17;8.10;;;;;;;;;;5006705;28;20190;-63
2022/03/28 01:00:46;;;;;;;16.63;7.80;;;;;;;;;;5010186;28;20339;-62
2022/03/28 01:03:13;;;;;;;15.37;7.63;;;;;;;;;;5009158;28;20696;-63
2022/03/28 01:05:39;;;;;;;12.87;7.73;;;;;;;;;;5010473;28;20499;-62
2022/03/28 01:08:06;;;;;;;11.47;7.40;;;;;;;;;;5003314;28;20189;-62
2022/03/28 01:10:34;;;;;;;13.73;7.90;;;;;;;;;;5013224;28;20213;-60
2022/03/28 01:13:02;;;;;;;16.63;7.43;;;;;;;;;;5010889;28;20200;-62
2022/03/28 01:15:28;;;;;;;12.37;7.33;;;;;;;;;;5024514;28;20200;-62
2022/03/28 01:18:06;;;;;;;10.60;7.33;;;;;;;;;;5011380;28;20514;-62
2022/03/28 01:20:36;;;;;;;9.20;6.80;;;;;;;;;;5009188;28;20198;-61
2022/03/28 01:23:04;;;;;;;12.23;6.87;;;;;;;;;;5008752;28;20242;-63
2022/03/28 01:25:31;;;;;;;16.60;7.37;;;;;;;;;;5010035;28;20592;-63
2022/03/28 01:27:59;;;;;;;12.37;6.77;;;;;;;;;;5010340;28;20708;-62
2022/03/28 01:30:28;;;;;;;11.83;7.03;;;;;;;;;;5007892;28;20244;-63
2022/03/28 01:32:56;;;;;;;17.30;6.77;;;;;;;;;;5003923;28;20550;-63
2022/03/28 01:35:31;;;;;;;14.90;8.47;;;;;;;;;;5011681;28;20184;-61
2022/03/28 01:37:59;;;;;;;10.53;6.57;;;;;;;;;;5011115;28;20192;-62
2022/03/28 01:40:26;;;;;;;9.40;6.43;;;;;;;;;;5007288;28;20232;-62
2022/03/28 01:42:52;;;;;;;15.63;6.73;;;;;;;;;;5025279;28;20211;-62
2022/03/28 01:45:19;;;;;;;13.10;6.83;;;;;;;;;;5000073;28;20375;-62
2022/03/28 01:47:46;;;;;;;9.30;6.10;;;;;;;;;;5010342;28;20189;-61
2022/03/28 01:50:14;;;;;;;14.00;6.67;;;;;;;;;;5010818;28;20209;-63
2022/03/28 01:52:43;;;;;;;11.23;6.67;;;;;;;;;;5005594;28;20205;-63
2022/03/28 01:55:10;;;;;;;11.40;6.50;;;;;;;;;;5010444;28;20201;-62
2022/03/28 01:57:39;;;;;;;11.70;7.20;;;;;;;;;;5009081;28;20201;-64
2022/03/28 02:00:08;;;;;;;9.07;6.90;;;;;;;;;;5002108;28;20201;-64
2022/03/28 02:02:35;;;;;;;11.67;6.37;;;;;;;;;;5006739;28;20554;-62
2022/03/28 02:05:01;;;;;;;10.80;6.50;;;;;;;;;;5010100;28;20831;-65
2022/03/28 02:07:28;;;;;;;15.23;6.70;;;;;;;;;;5008090;28;20196;-63
2022/03/28 02:09:55;;;;;;;15.10;7.13;;;;;;;;;;5010917;28;20619;-63
2022/03/28 02:12:22;;;;;;;12.57;7.40;;;;;;;;;;5010491;28;20189;-64
2022/03/28 02:14:49;;;;;;;12.93;7.80;;;;;;;;;;5007174;28;20201;-65
2022/03/28 02:17:15;;;;;;;12.60;8.03;;;;;;;;;;5010098;28;20200;-62
2022/03/28 02:19:42;;;;;;;11.87;7.63;;;;;;;;;;5005782;28;20276;-63
2022/03/28 02:22:09;;;;;;;10.60;7.77;;;;;;;;;;5007857;28;20195;-62
2022/03/28 02:24:36;;;;;;;13.73;8.23;;;;;;;;;;5004946;28;20613;-64
2022/03/28 02:27:02;;;;;;;11.70;7.83;;;;;;;;;;5022636;28;20882;-63
2022/03/28 02:29:29;;;;;;;11.00;7.97;;;;;;;;;;5007275;28;20220;-62
2022/03/28 02:31:55;;;;;;;10.57;7.60;;;;;;;;;;5008123;28;20221;-62
2022/03/28 02:34:22;;;;;;;9.67;7.57;;;;;;;;;;5009508;28;20593;-65
2022/03/28 02:36:48;;;;;;;10.23;7.80;;;;;;;;;;5008912;28;20230;-65
2022/03/28 02:39:15;;;;;;;11.13;7.87;;;;;;;;;;5004779;28;20231;-64
2022/03/28 02:41:41;;;;;;;12.47;8.20;;;;;;;;;;5009215;28;20665;-63
2022/03/28 02:44:08;;;;;;;13.10;7.80;;;;;;;;;;5008918;28;20200;-65
2022/03/28 02:46:34;;;;;;;11.83;7.47;;;;;;;;;;5023254;28;20189;-63
2022/03/28 02:49:01;;;;;;;13.50;7.93;;;;;;;;;;5008379;28;20201;-64
2022/03/28 02:51:29;;;;;;;12.57;7.33;;;;;;;;;;5009904;28;20296;-62
2022/03/28 02:53:56;;;;;;;11.50;7.83;;;;;;;;;;5008778;28;20627;-61
2022/03/28 02:56:22;;;;;;;10.33;7.23;;;;;;;;;;5003767;28;20204;-62
2022/03/28 02:58:49;;;;;;;11.47;7.43;;;;;;;;;;5006198;28;20262;-64
2022/03/28 03:01:16;;;;;;;10.20;7.83;;;;;;;;;;5007617;28;20189;-62
2022/03/28 03:03:42;;;;;;;16.63;8.37;;;;;;;;;;5008979;28;20523;-62
2022/03/28 03:06:09;;;;;;;11.37;7.80;;;;;;;;;;5007570;28;20197;-62
2022/03/28 03:08:35;;;;;;;12.53;7.17;;;;;;;;;;5001448;28;20714;-63
2022/03/28 03:11:02;;;;;;;13.03;8.07;;;;;;;;;;5009025;28;20209;-62
2022/03/28 03:13:28;;;;;;;12.47;7.70;;;;;;;;;;4999569;28;20191;-62
2022/03/28 03:15:55;;;;;;;11.13;7.87;;;;;;;;;;5008586;28;20553;-62
2022/03/28 03:18:21;;;;;;;13.70;8.03;;;;;;;;;;5008814;28;20276;-62
2022/03/28 03:20:48;;;;;;;13.67;8.73;;;;;;;;;;5008612;28;20215;-62
2022/03/28 03:23:14;;;;;;;11.27;6.90;;;;;;;;;;5006613;28;20200;-63
2022/03/28 03:25:41;;;;;;;11.43;7.70;;;;;;;;;;5007475;28;20224;-63
2022/03/28 03:28:07;;;;;;;10.40;6.47;;;;;;;;;;5008161;28;20331;-62
2022/03/28 03:30:34;;;;;;;10.60;6.10;;;;;;;;;;5006317;28;20223;-62
2022/03/28 03:33:00;;;;;;;10.97;6.57;;;;;;;;;;5006178;28;20542;-64
2022/03/28 03:35:27;;;;;;;11.60;7.00;;;;;;;;;;5008559;28;20197;-64
2022/03/28 03:37:54;;;;;;;16.17;6.93;;;;;;;;;;5006549;28;20618;-62
2022/03/28 03:40:20;;;;;;;15.70;6.80;;;;;;;;;;5022664;28;20685;-65
2022/03/28 03:42:47;;;;;;;11.47;7.07;;;;;;;;;;5007999;28;20188;-61
2022/03/28 03:45:14;;;;;;;9.13;6.03;;;;;;;;;;5005187;28;20189;-62
2022/03/28 03:47:41;;;;;;;9.33;6.17;;;;;;;;;;5007719;28;20204;-64
2022/03/28 03:50:08;;;;;;;9.80;6.23;;;;;;;;;;5007860;28;20196;-63
2022/03/28 03:52:35;;;;;;;11.00;5.57;;;;;;;;;;5007756;28;20264;-63
2022/03/28 03:55:02;;;;;;;7.57;5.30;;;;;;;;;;5002736;28;20224;-62
2022/03/28 03:57:28;;;;;;;8.47;6.07;;;;;;;;;;5004252;28;20196;-62
2022/03/28 03:59:55;;;;;;;13.43;5.97;;;;;;;;;;5007658;28;20205;-62
2022/03/28 04:02:22;;;;;;;7.83;5.80;;;;;;;;;;5003491;28;20531;-62
2022/03/28 04:04:48;;;;;;;11.93;5.97;;;;;;;;;;5007477;28;20219;-62
2022/03/28 04:07:15;;;;;;;10.77;5.67;;;;;;;;;;5008126;28;20689;-62
2022/03/28 04:09:42;;;;;;;6.23;4.90;;;;;;;;;;5005364;28;20195;-62
2022/03/28 04:12:09;;;;;;;8.17;5.67;;;;;;;;;;4988798;28;20582;-64
2022/03/28 04:14:35;;;;;;;14.37;5.20;;;;;;;;;;5006821;28;20207;-61
2022/03/28 04:17:02;;;;;;;9.27;5.47;;;;;;;;;;5008174;28;20193;-64
2022/03/28 04:19:29;;;;;;;10.27;5.70;;;;;;;;;;5003681;28;21039;-64
2022/03/28 04:21:55;;;;;;;8.20;5.67;;;;;;;;;;5005936;28;20232;-65
2022/03/28 04:24:22;;;;;;;10.07;5.90;;;;;;;;;;5007408;28;20184;-67
2022/03/28 04:26:48;;;;;;;9.13;5.10;;;;;;;;;;5007311;28;20224;-62
2022/03/28 04:29:15;;;;;;;10.50;5.20;;;;;;;;;;4997466;28;20205;-63
2022/03/28 04:31:42;;;;;;;9.50;5.30;;;;;;;;;;5008596;28;20223;-62
2022/03/28 04:34:09;;;;;;;9.53;5.80;;;;;;;;;;5008300;28;20192;-62
2022/03/28 04:36:38;;;;;;;8.73;5.10;;;;;;;;;;5027231;28;20307;-62
2022/03/28 04:39:05;;;;;;;8.97;4.97;;;;;;;;;;4983019;28;20201;-64
2022/03/28 04:41:34;;;;;;;10.37;5.43;;;;;;;;;;4999396;28;20189;-61
2022/03/28 04:44:00;;;;;;;10.57;5.10;;;;;;;;;;5009836;28;20255;-63
2022/03/28 04:46:27;;;;;;;7.63;5.10;;;;;;;;;;5010634;28;20200;-61
2022/03/28 04:48:53;;;;;;;10.83;5.10;;;;;;;;;;5006318;28;20212;-62
2022/03/28 04:51:20;;;;;;;9.60;5.67;;;;;;;;;;5004881;28;20626;-63
2022/03/28 04:53:46;;;;;;;10.27;4.90;;;;;;;;;;5010265;28;20284;-62
2022/03/28 04:56:13;;;;;;;9.57;5.10;;;;;;;;;;4993400;28;20232;-62
2022/03/28 04:58:40;;;;;;;7.70;5.23;;;;;;;;;;5011338;28;20193;-61
2022/03/28 05:01:06;;;;;;;9.30;4.87;;;;;;;;;;5018882;28;20200;-63
2022/03/28 05:03:33;;;;;;;11.03;5.70;;;;;;;;;;5010856;28;20189;-62
2022/03/28 05:05:59;;;;;;;13.87;6.03;;;;;;;;;;5004345;28;20184;-62
2022/03/28 05:08:26;;;;;;;11.37;5.60;;;;;;;;;;5010447;28;20315;-62
2022/03/28 05:10:52;;;;;;;7.97;5.97;;;;;;;;;;5011022;28;20212;-64
2022/03/28 05:13:20;;;;;;;7.70;5.90;;;;;;;;;;5009145;28;20654;-63
2022/03/28 05:15:47;;;;;;;9.30;6.57;;;;;;;;;;5004221;28;20208;-64
2022/03/28 05:18:16;;;;;;;8.93;6.67;;;;;;;;;;5009292;28;20563;-64
2022/03/28 05:20:42;;;;;;;11.90;7.10;;;;;;;;;;5011941;28;20181;-62
2022/03/28 05:23:09;;;;;;;11.40;6.97;;;;;;;;;;5025218;28;20197;-64
2022/03/28 05:25:35;;;;;;;14.27;7.47;;;;;;;;;;5011803;28;20193;-62
2022/03/28 05:28:02;;;;;;;13.13;7.83;;;;;;;;;;5014223;28;20189;-66
2022/03/28 05:30:29;;;;;;;14.43;8.57;;;;;;;;;;5010645;28;20220;-63
2022/03/28 05:32:56;;;;;;;16.27;8.63;;;;;;;;;;5009213;28;20255;-63
2022/03/28 05:35:22;;;;;;;17.30;8.57;;;;;;;;;;5009196;28;20635;-63
2022/03/28 05:37:49;;;;;;;13.40;8.40;;;;;;;;;;5007635;28;20204;-63
2022/03/28 05:40:16;;;;;;;10.70;8.43;;;;;;;;;;5004303;28;20232;-64
2022/03/28 05:42:43;;;;;;;15.30;9.00;;;;;;;;;;5010662;28;20200;-63
2022/03/28 05:45:11;;;;;;;15.03;9.53;;;;;;;;;;5008235;28;20289;-64
2022/03/28 05:47:38;;;;;;;16.03;8.67;;;;;;;;;;5025451;28;20196;-64
2022/03/28 05:50:06;;;;;;;14.17;8.77;;;;;;;;;;4999479;28;20209;-63
2022/03/28 05:52:33;;;;;;;13.57;8.40;;;;;;;;;;5008204;28;20242;-67
2022/03/28 05:55:01;;;;;;;13.00;8.47;;;;;;;;;;5006647;28;20205;-63
2022/03/28 05:57:28;;;;;;;17.63;8.07;;;;;;;;;;5011067;28;20189;-67
2022/03/28 05:59:54;;;;;;;20.13;8.00;;;;;;;;;;5025194;28;20305;-65
2022/03/28 06:02:21;;;;;;;13.73;8.27;;;;;;;;;;5022207;28;20518;-64
2022/03/28 06:04:47;;;;;;;21.70;8.93;;;;;;;;;;5009010;28;20196;-65
2022/03/28 06:07:14;;;;;;;20.30;8.03;;;;;;;;;;5008523;28;20272;-64
2022/03/28 06:09:41;;;;;;;20.10;8.07;;;;;;;;;;5008855;28;20204;-63
2022/03/28 06:12:08;;;;;;;13.00;7.53;;;;;;;;;;5002369;28;20271;-64
2022/03/28 06:14:35;;;;;;;15.90;7.80;;;;;;;;;;5003733;28;20205;-63
2022/03/28 06:17:02;;;;;;;11.20;7.23;;;;;;;;;;5006454;28;20759;-62
2022/03/28 06:19:28;;;;;;;10.77;7.23;;;;;;;;;;5008841;28;20193;-63
2022/03/28 06:21:55;;;;;;;16.80;7.90;;;;;;;;;;5023736;28;20638;-63
2022/03/28 06:24:21;;;;;;;15.03;8.30;;;;;;;;;;4988701;28;20193;-62
2022/03/28 06:26:48;;;;;;;10.67;7.33;;;;;;;;;;5007895;28;20298;-63
2022/03/28 06:29:15;;;;;;;12.77;6.93;;;;;;;;;;5006919;28;20225;-62
2022/03/28 06:31:42;;;;;;;9.40;6.40;;;;;;;;;;5009132;28;20669;-61
2022/03/28 06:34:09;;;;;;;12.90;7.03;;;;;;;;;;5009238;28;20287;-62
2022/03/28 06:36:35;;;;;;;15.00;7.00;;;;;;;;;;5009766;28;20216;-62
2022/03/28 06:39:02;;;;;;;11.43;6.37;;;;;;;;;;5007832;28;20953;-63
2022/03/28 06:41:29;;;;;;;16.30;7.33;;;;;;;;;;5007923;28;20197;-64
2022/03/28 06:43:56;;;;;;;14.53;6.47;;;;;;;;;;5024009;28;20299;-65
2022/03/28 06:46:22;;;;;;;11.80;6.77;;;;;;;;;;5009556;28;20208;-64
2022/03/28 06:48:50;;;;;;;11.23;7.03;;;;;;;;;;5009401;28;20235;-64
2022/03/28 06:51:16;;;;;;;11.20;6.70;;;;;;;;;;5009744;28;20727;-64
2022/03/28 06:53:45;;;;;;;10.87;6.67;;;;;;;;;;5006202;28;20197;-61
2022/03/28 06:56:12;;;;;;;11.50;7.10;;;;;;;;;;5007236;28;20655;-62
2022/03/28 06:58:38;;;;;;;15.87;7.37;;;;;;;;;;5009072;28;20258;-63
2022/03/28 07:01:05;;;;;;;10.83;6.80;;;;;;;;;;5007979;28;20232;-64
2022/03/28 07:03:32;;;;;;;11.37;6.50;;;;;;;;;;5005107;28;20192;-62
2022/03/28 07:05:59;;;;;;;14.07;7.20;;;;;;;;;;5008575;28;20196;-64
2022/03/28 07:08:25;;;;;;;9.40;6.23;;;;;;;;;;5007315;28;20626;-62
2022/03/28 07:10:53;;;;;;;14.00;6.73;;;;;;;;;;5009058;28;20224;-62
2022/03/28 07:13:20;;;;;;;13.60;7.13;;;;;;;;;;5007268;28;20192;-65
2022/03/28 07:15:46;;;;;;;14.67;7.20;;;;;;;;;;5007220;28;20200;-64
2022/03/28 07:18:13;;;;;;;13.77;7.10;;;;;;;;;;5006411;28;20201;-62
2022/03/28 07:20:40;;;;;;;11.97;6.57;;;;;;;;;;5007312;28;20185;-64
2022/03/28 07:23:07;;;;;;;10.70;6.80;;;;;;;;;;5007585;28;20200;-63
2022/03/28 07:25:34;;;;;;;16.00;6.50;;;;;;;;;;5007464;28;20196;-62
2022/03/28 07:28:06;;;;;;;13.00;6.17;;;;;;;;;;5005050;28;20291;-64
2022/03/28 07:30:32;;;;;;;10.20;5.83;;;;;;;;;;5008001;28;20255;-62
2022/03/28 07:32:59;;;;;;;16.10;6.80;;;;;;;;;;5007301;28;20205;-63
2022/03/28 07:35:26;;;;;;;9.33;5.83;;;;;;;;;;5023123;28;20312;-64
2022/03/28 07:37:52;;;;;;;9.83;5.97;;;;;;;;;;5005726;28;20230;-64
2022/03/28 07:40:20;;;;;;;9.80;6.20;;;;;;;;;;5007897;28;20207;-64
2022/03/28 07:42:46;;;;;;;8.97;6.30;;;;;;;;;;5006876;28;20216;-64
2022/03/28 07:45:14;;;;;;;9.93;5.60;;;;;;;;;;5006402;28;20203;-63
2022/03/28 07:47:42;;;;;;;11.63;5.90;;;;;;;;;;5003005;28;20199;-63
2022/03/28 07:50:09;;;;;;;13.27;6.50;;;;;;;;;;5007110;28;20181;-65
2022/03/28 07:52:36;;;;;;;10.80;6.27;;;;;;;;;;5007714;28;20242;-64
2022/03/28 07:55:05;;;;;;;14.17;5.57;;;;;;;;;;5009274;28;20176;-63
2022/03/28 07:57:31;;;;;;;9.77;6.30;;;;;;;;;;5021743;28;20219;-64
2022/03/28 07:59:58;;;;;;;11.73;6.10;;;;;;;;;;5007685;28;20653;-63
2022/03/28 08:02:27;;;;;;;12.70;6.17;;;;;;;;;;5017766;28;21247;-65
2022/03/28 08:04:54;;;;;;;8.00;5.53;;;;;;;;;;5005128;28;20608;-62
2022/03/28 08:07:20;;;;;;;12.10;5.67;;;;;;;;;;5008042;28;20195;-62
2022/03/28 08:09:47;;;;;;;12.70;5.67;;;;;;;;;;5006798;28;20577;-63
2022/03/28 08:12:15;;;;;;;11.03;6.23;;;;;;;;;;5004413;28;20220;-62
2022/03/28 08:14:41;;;;;;;10.90;5.37;;;;;;;;;;5005147;28;20211;-63
2022/03/28 08:17:08;;;;;;;11.80;5.80;;;;;;;;;;5005238;28;20197;-62
2022/03/28 08:19:35;;;;;;;9.60;5.90;;;;;;;;;;5003470;28;20195;-61
2022/03/28 08:22:02;;;;;;;9.53;5.87;;;;;;;;;;5007527;28;20259;-63
2022/03/28 08:24:30;;;;;;;14.33;6.70;;;;;;;;;;5007777;28;20192;-63
2022/03/28 08:26:56;;;;;;;12.13;5.73;;;;;;;;;;5006417;28;20550;-62
2022/03/28 08:29:23;;;;;;;16.83;6.20;;;;;;;;;;5008174;28;20969;-62
2022/03/28 08:31:49;;;;;;;12.70;6.60;;;;;;;;;;5005751;28;20223;-62
2022/03/28 08:34:17;;;;;;;13.43;6.03;;;;;;;;;;5005715;28;20246;-63
2022/03/28 08:36:44;;;;;;;8.50;5.17;;;;;;;;;;5008702;28;20208;-65
2022/03/28 08:39:10;;;;;;;9.23;5.13;;;;;;;;;;5007815;28;20806;-63
2022/03/28 08:41:37;;;;;;;7.80;4.97;;;;;;;;;;5007295;28;20192;-62
2022/03/28 08:44:04;;;;;;;14.23;5.50;;;;;;;;;;5006992;28;20197;-64
2022/03/28 08:46:31;;;;;;;8.33;4.73;;;;;;;;;;5004395;28;20704;-63
2022/03/28 08:48:59;;;;;;;10.33;5.17;;;;;;;;;;5004423;28;20192;-63
2022/03/28 08:51:27;;;;;;;7.33;5.00;;;;;;;;;;5006830;28;20213;-65
2022/03/28 08:53:55;;;;;;;9.80;5.50;;;;;;;;;;5001835;28;20712;-65
2022/03/28 08:56:22;;;;;;;11.23;4.97;;;;;;;;;;5005207;28;20197;-65
2022/03/28 08:58:48;;;;;;;12.23;4.43;;;;;;;;;;5004334;28;20196;-64
2022/03/28 09:01:16;;;;;;;8.37;4.30;;;;;;;;;;5007652;28;20634;-66
2022/03/28 09:03:47;;;;;;;9.57;4.70;;;;;;;;;;5006584;28;20224;-64
2022/03/28 09:06:43;;;;;;;6.73;3.87;;;;;;;;;;5004112;28;20201;-65
2022/03/28 09:09:21;;;;;;;7.50;3.83;;;;;;;;;;5005402;28;20262;-65
2022/03/28 09:12:04;;;;;;;8.43;3.20;;;;;;;;;;4986263;28;20609;-64
2022/03/28 09:14:33;;;;;;;6.63;3.50;;;;;;;;;;5004786;28;20205;-64
2022/03/28 09:17:11;;;;;;;6.07;3.20;;;;;;;;;;5000726;28;20189;-65
2022/03/28 09:19:59;;;;;;;4.60;3.20;;;;;;;;;;5010121;28;20193;-64
2022/03/28 09:22:29;;;;;;;9.20;3.60;;;;;;;;;;5008877;28;20208;-66
2022/03/28 09:25:04;;;;;;;8.40;3.77;;;;;;;;;;5007099;28;20193;-65
2022/03/28 09:27:33;;;;;;;7.20;3.97;;;;;;;;;;5008971;28;20303;-63
2022/03/28 09:30:11;;;;;;;9.53;3.90;;;;;;;;;;5007432;28;21597;-64
2022/03/28 09:32:39;;;;;;;6.10;3.60;;;;;;;;;;4989840;28;20193;-64
2022/03/28 09:35:27;;;;;;;8.90;3.60;;;;;;;;;;5007403;28;20258;-66
2022/03/28 09:38:08;;;;;;;7.67;4.23;;;;;;;;;;5018490;28;20194;-64
2022/03/28 09:40:41;;;;;;;9.07;3.60;;;;;;;;;;5018000;28;20195;-66
2022/03/28 09:43:20;;;;;;;9.50;3.43;;;;;;;;;;5022293;28;20251;-65
2022/03/28 09:45:55;;;;;;;7.63;4.10;;;;;;;;;;5022280;28;20263;-65
2022/03/28 09:48:27;;;;;;;9.07;4.43;;;;;;;;;;5018967;28;20204;-65
2022/03/28 09:51:03;;;;;;;7.43;3.47;;;;;;;;;;5004046;28;20332;-64
2022/03/28 09:53:32;;;;;;;7.80;3.83;;;;;;;;;;5007899;28;20622;-67
2022/03/28 09:56:02;;;;;;;12.87;4.03;;;;;;;;;;5007889;28;20224;-64
2022/03/28 09:58:34;;;;;;;10.53;3.97;;;;;;;;;;5008019;28;20271;-65
2022/03/28 10:01:04;;;;;;;5.20;3.53;;;;;;;;;;5007489;28;20200;-65
2022/03/28 10:03:34;;;;;;;6.93;3.50;;;;;;;;;;5008506;28;20243;-66
2022/03/28 10:06:03;;;;;;;6.97;3.53;;;;;;;;;;5008477;28;20287;-65
2022/03/28 10:08:30;;;;;;;6.17;3.70;;;24.10;99.90;;;;;;5008745;28;20203;-64
2022/03/28 10:10:58;;;;;;;13.80;3.90;;;25.20;98.60;;;;;;5004630;28;20685;-66
2022/03/28 10:13:26;;;;;;;5.83;3.73;;;23.40;97.50;;;;;;5004731;28;20204;-65
2022/03/28 10:15:53;;;;;;;9.53;4.10;;;22.10;98.10;;;;;;5007660;28;20216;-64
2022/03/28 10:18:20;;;;;;;9.30;4.13;;;21.60;99.90;;;;;;5018556;28;20228;-66
2022/03/28 10:20:53;;;;;;;6.13;3.97;;;21.20;99.90;;;;;;5022852;28;20247;-67
2022/03/28 10:23:25;;;;;;;9.97;4.10;;;21.50;99.90;;;;;;5005906;28;20714;-66
2022/03/28 10:25:55;;;;;;;11.63;3.90;;;;;;;;;;5009330;28;20279;-65
2022/03/28 10:28:22;;;;;;;7.47;3.93;;;;;;;;;;4989007;28;20299;-65
2022/03/28 10:30:48;;;;;;;9.10;3.80;;;;;;;;;;5007329;28;20563;-66
2022/03/28 10:33:25;;;;;;;9.13;4.17;;;;;;;;;;5007448;28;20311;-66
2022/03/28 10:35:57;;;;;;;8.83;4.30;;;;;;;;;;5001290;28;20889;-66
2022/03/28 10:38:24;;;;;;;6.77;3.80;;;;;;;;;;5006302;28;20322;-65
2022/03/28 10:41:05;;;;;;;5.93;3.63;;;;;;;;;;5005394;28;20665;-65
2022/03/28 10:43:34;;;;;;;8.23;3.93;;;;;;;;;;5003470;28;20244;-65
2022/03/28 10:46:09;;;;;;;10.33;3.53;;;;;;;;;;5006232;28;20200;-65
2022/03/28 10:48:44;;;;;;;6.47;3.90;;;;;;;;;;5001545;28;20188;-64
2022/03/28 10:51:14;;;;;;;6.63;3.67;;;;;;;;;;5005058;28;20771;-66
2022/03/28 10:53:43;;;;;;;8.40;4.17;;;;;;;;;;5002186;28;20859;-67
2022/03/28 10:56:34;;;;;;;7.77;3.97;;;;;;;;;;5003991;28;20193;-65
2022/03/28 10:59:12;;;;;;;6.77;4.00;;;;;;;;;;5006976;28;20227;-65
2022/03/28 11:01:43;;;;;;;7.53;3.77;;;;;;;;;;5005156;28;20196;-65
2022/03/28 11:04:16;;;;;;;7.70;4.00;;;;;;;;;;5001080;28;20212;-65
2022/03/28 11:06:49;;;;;;;7.20;4.00;;;;;;;;;;4996990;28;20229;-64
2022/03/28 11:09:46;;;;;;;11.63;4.30;;;;;;;;;;4988782;28;20239;-65
2022/03/28 11:12:18;;;;;;;6.27;4.00;;;;;;;;;;5005546;28;20212;-67
2022/03/28 11:14:50;;;;;;;6.73;4.17;;;;;;;;;;5006798;28;20200;-65
2022/03/28 11:17:29;;;;;;;25.80;11.83;;;;;;;;;;5007781;28;20199;-64
2022/03/28 11:20:03;;;;;;;10.57;5.17;;;;;;;;;;5002051;28;20192;-64
2022/03/28 11:23:09;;;;;;;7.70;4.00;;;;;;;;;;5001808;28;20519;-63
2022/03/28 11:25:56;;;;;;;8.00;4.10;;;;;;;;;;4966776;28;20202;-64
2022/03/28 11:28:22;;;;;;;16.00;4.60;;;;;;;;;;4964486;28;20225;-65
2022/03/28 11:31:08;;;;;;;8.67;4.47;;;;;;;;;;4982036;28;20286;-64
2022/03/28 11:33:51;;;;;;;7.73;4.30;;;;;;;;;;5009469;28;20519;-65
2022/03/28 11:36:21;;;;;;;15.30;5.20;;;;;;;;;;4999373;28;20240;-65
2022/03/28 11:38:53;;;;;;;12.27;4.50;;;;;;;;;;4999031;28;20192;-65
2022/03/28 11:41:21;;;;;;;12.67;4.43;;;;;;;;;;4987527;28;20885;-65
2022/03/28 11:43:50;;;;;;;13.63;4.83;;;;;;;;;;5000566;28;20342;-63
2022/03/28 11:46:21;;;;;;;12.20;4.40;;;;;;;;;;5003177;28;20200;-64
2022/03/28 11:49:06;;;;;;;6.57;4.37;;;;;;;;;;5000075;28;20200;-66
2022/03/28 11:51:39;;;;;;;9.47;4.20;;;;;;;;;;5009918;28;20797;-66
2022/03/28 11:54:11;;;;;;;11.10;4.17;;;;;;;;;;5020967;28;20684;-66
2022/03/28 11:59:26;;;;;;;8.83;4.83;;;;;;;;;;5002508;28;20228;-64
2022/03/28 12:02:01;;;;;;;8.60;4.47;;;;;;;;;;5003649;28;20197;-66
2022/03/28 12:04:28;;;;;;;9.30;4.37;;;;;;;;;;5003298;28;20223;-64
2022/03/28 12:06:56;;;;;;;12.03;5.27;;;;;;;;;;4998845;28;20196;-65
2022/03/28 12:09:23;;;;;;;6.37;4.40;;;;;;;;;;5007577;28;20654;-65
2022/03/28 12:11:52;;;;;;;8.33;4.43;;;;;;;;;;5006190;28;20209;-64
2022/03/28 12:14:20;;;;;;;10.10;4.53;;;;;;;;;;5004062;28;20204;-67
2022/03/28 12:16:55;;;;;;;9.90;4.43;;;;;;;;;;5005266;28;20206;-66
2022/03/28 12:19:24;;;;;;;12.30;5.03;;;;;;;;;;5003361;28;20365;-64
2022/03/28 12:21:52;;;;;;;8.10;4.27;;;;;;;;;;5004558;28;20189;-64
2022/03/28 12:24:21;;;;;;;10.73;4.60;;;;;;;;;;5005566;28;20189;-65
2022/03/28 12:26:49;;;;;;;15.53;4.40;;;;;;;;;;5007747;28;20193;-65
2022/03/28 12:29:16;;;;;;;7.00;4.30;;;;;;;;;;4997850;28;20196;-66
2022/03/28 12:31:45;;;;;;;7.27;4.23;;;;;;;;;;5003264;28;20690;-65
2022/03/28 12:34:12;;;;;;;11.20;4.70;;;;;;;;;;5011726;28;20218;-67
2022/03/28 12:36:40;;;;;;;8.77;4.80;;;;;;;;;;5002678;28;20216;-66
2022/03/28 12:39:10;;;;;;;7.43;4.30;;;;;;;;;;5000243;28;20303;-66
2022/03/28 12:41:46;;;;;;;8.37;4.40;;;;;;;;;;5018438;28;20213;-65
2022/03/28 12:44:26;;;;;;;7.63;4.27;;;;;;;;;;5005126;28;20195;-65
2022/03/28 12:47:03;;;;;;;9.00;4.43;;;;;;;;;;5007775;28;20221;-66
2022/03/28 12:49:43;;;;;;;8.47;4.30;;;;;;;;;;5006585;28;20626;-65
2022/03/28 12:52:12;;;;;;;6.37;3.90;;;;;;;;;;5019047;28;20636;-66
2022/03/28 12:54:38;;;;;;;10.37;5.00;;;;;;;;;;5011109;28;20180;-65
2022/03/28 12:57:05;;;;;;;12.13;4.73;;;;;;;;;;5005994;28;20204;-65
2022/03/28 12:59:34;;;;;;;13.17;4.67;;;;;;;;;;5009742;28;20239;-66
2022/03/28 13:02:16;;;;;;;8.40;4.50;;;;;;;;;;5025758;28;20590;-65
2022/03/28 13:04:49;;;;;;;7.97;4.57;;;;;;;;;;5007293;28;20194;-65
2022/03/28 13:07:27;;;;;;;8.37;4.27;;;;;;;;;;5003817;28;20554;-67
2022/03/28 13:10:00;;;;;;;9.27;4.23;;;;;;;;;;4992812;28;20251;-65
2022/03/28 13:12:34;;;;;;;6.43;4.10;;;;;;;;;;5009442;28;20212;-66
2022/03/28 13:15:02;;;;;;;12.33;4.63;;;;;;;;;;5003098;28;20224;-64
2022/03/28 13:17:29;;;;;;;10.37;4.50;;;;;;;;;;5009628;28;20279;-66
2022/03/28 13:20:02;;;;;;;10.30;4.57;;;;;;;;;;5009964;28;20236;-64
2022/03/28 13:22:37;;;;;;;8.00;4.83;;;;;;;;;;5011006;28;20279;-64
2022/03/28 13:25:17;;;;;;;8.97;4.20;;;;;;;;;;5009772;28;20185;-65
2022/03/28 13:28:01;;;;;;;6.13;4.23;;;;;;;;;;5007376;28;20279;-65
2022/03/28 13:30:31;;;;;;;6.80;3.93;;;;;;;;;;5009038;28;20618;-66
2022/03/28 13:32:59;;;;;;;10.20;4.53;;;;;;;;;;5009504;28;20201;-66
2022/03/28 13:35:26;;;;;;;6.03;3.87;;;;;;;;;;5009844;28;20177;-65
2022/03/28 13:38:05;;;;;;;8.00;4.47;;;;;;;;;;5009630;28;20231;-65
2022/03/28 13:40:33;;;;;;;7.13;4.10;;;;;;;;;;5010012;28;20243;-64
2022/03/28 13:43:01;;;;;;;10.33;4.40;;;;;;;;;;5009529;28;20204;-64
2022/03/28 13:45:29;;;;;;;7.47;4.40;;;;;;;;;;5007751;28;20663;-66
2022/03/28 13:47:57;;;;;;;9.67;4.67;;;;;;;;;;5007931;28;20193;-65
2022/03/28 13:50:24;;;;;;;9.43;4.50;;;;;;;;;;5010787;28;20276;-66
2022/03/28 13:52:51;;;;;;;9.47;4.40;;;;;;;;;;5008109;28;20273;-64
2022/03/28 13:55:18;;;;;;;6.27;3.80;;;;;;;;;;5009226;28;20254;-64
2022/03/28 13:57:44;;;;;;;7.17;4.20;;;;;;;;;;5009145;28;20303;-66
2022/03/28 14:00:11;;;;;;;10.33;4.27;;;;;;;;;;5010311;28;20189;-65
2022/03/28 14:02:38;;;;;;;11.30;4.57;;;;;;;;;;5004328;28;20831;-66
2022/03/28 14:05:05;;;;;;;6.83;4.23;;;;;;;;;;5026261;28;20703;-65
2022/03/28 14:07:32;;;;;;;8.87;4.53;;;;;;;;;;5009448;28;20280;-65
2022/03/28 14:09:59;;;;;;;6.73;4.20;;;;;;;;;;5009627;28;20231;-66
2022/03/28 14:12:27;;;;;;;6.30;4.47;;;;;;;;;;5010163;28;20212;-65
2022/03/28 14:14:53;;;;;;;8.57;4.33;;;;;;;;;;5009338;28;20250;-65
2022/03/28 14:17:20;;;;;;;10.50;4.27;;;;;;;;;;5010564;28;20885;-64
2022/03/28 14:19:47;;;;;;;8.77;3.70;;;;;;;;;;5009732;28;20681;-65
2022/03/28 14:22:13;;;;;;;6.47;4.20;;;;;;;;;;5008734;28;20185;-65
2022/03/28 14:24:40;;;;;;;6.60;4.20;;;;;;;;;;5008579;28;20295;-65
2022/03/28 14:27:07;;;;;;;7.40;4.30;;;;;;;;;;5002865;28;20640;-64
2022/03/28 14:29:34;;;;;;;8.27;4.53;;;;;;;;;;5010354;28;20193;-65
2022/03/28 14:32:01;;;;;;;6.23;4.13;;;;;;;;;;5006514;28;20244;-65
2022/03/28 14:34:27;;;;;;;6.10;4.10;;;;;;;;;;5008137;28;20184;-65
2022/03/28 14:36:54;;;;;;;6.40;4.23;;;;;;;;;;5008424;28;20398;-65
2022/03/28 14:39:20;;;;;;;11.37;4.23;;;;;;;;;;5010192;28;20255;-65
2022/03/28 14:41:47;;;;;;;9.20;4.60;;;;;;;;;;5008409;28;20199;-64
2022/03/28 14:44:14;;;;;;;5.67;4.17;;;;;;;;;;5007703;28;20220;-64
2022/03/28 14:49:25;;;;;;;7.60;4.00;;;;;;;;;;5009317;28;20196;-67